createdAt,value
2023-05-24T00:01:00.489Z,18.42
2023-05-24T00:03:30.980Z,15.38
2023-05-24T00:05:58.269Z,18.83
2023-05-24T00:08:25.327Z,20.05
2023-05-24T00:10:52.591Z,19.08
2023-05-24T00:13:19.923Z,20.83
2023-05-24T00:15:47.099Z,23.60
2023-05-24T00:18:15.372Z,20.50
2023-05-24T00:20:43.017Z,23.98
2023-05-24T00:23:10.517Z,16.58
2023-05-24T00:25:37.985Z,21.38
2023-05-24T00:28:05.076Z,15.23
2023-05-24T00:30:35.104Z,16.77
2023-05-24T00:33:04.984Z,20.08
2023-05-24T00:35:32.196Z,24.05
2023-05-24T00:37:59.395Z,16.08
2023-05-24T00:40:26.691Z,18.77
2023-05-24T00:42:53.988Z,18.27
2023-05-24T00:45:21.111Z,19.65
2023-05-24T00:47:48.378Z,20.92
2023-05-24T00:50:17.381Z,20.55
2023-05-24T00:52:45.101Z,25.52
2023-05-24T00:55:12.495Z,21.30
2023-05-24T00:57:39.840Z,14.57
2023-05-24T01:00:08.385Z,15.63
2023-05-24T01:02:35.750Z,33.15
2023-05-24T01:05:04.291Z,21.42
2023-05-24T01:07:53.549Z,17.73
2023-05-24T01:10:35.788Z,19.33
2023-05-24T01:13:27.001Z,26.02
2023-05-24T01:16:01.964Z,15.30
2023-05-24T01:18:34.993Z,18.98
2023-05-24T01:21:48.565Z,18.55
2023-05-24T01:24:33.123Z,23.20
2023-05-24T01:27:07.664Z,17.70
2023-05-24T01:29:36.612Z,21.15
2023-05-24T01:32:04.280Z,19.95
2023-05-24T01:34:31.532Z,22.30
2023-05-24T01:36:58.863Z,17.27
2023-05-24T01:39:29.043Z,17.70
2023-05-24T01:42:38.233Z,22.13
2023-05-24T01:45:16.943Z,20.00
2023-05-24T01:47:53.091Z,23.98
2023-05-24T01:53:14.277Z,13.85
2023-05-24T01:55:42.551Z,26.35
2023-05-24T01:58:11.242Z,24.90
2023-05-24T02:00:40.932Z,25.85
2023-05-24T02:03:08.646Z,15.27
2023-05-24T02:05:36.094Z,23.88
2023-05-24T02:08:03.464Z,20.05
2023-05-24T02:10:30.984Z,12.50
2023-05-24T02:12:59.764Z,23.92
2023-05-24T02:15:30.575Z,22.02
2023-05-24T02:17:58.360Z,23.15
2023-05-24T02:20:25.708Z,29.33
2023-05-24T02:22:52.933Z,18.63
2023-05-24T02:25:20.071Z,20.98
2023-05-24T02:27:48.158Z,25.05
2023-05-24T02:30:15.595Z,23.65
2023-05-24T02:32:42.964Z,26.55
2023-05-24T02:35:10.169Z,31.90
2023-05-24T02:37:37.499Z,22.55
2023-05-24T02:40:05.617Z,19.08
2023-05-24T02:42:32.992Z,17.30
2023-05-24T02:45:00.285Z,23.52
2023-05-24T02:47:27.613Z,21.75
2023-05-24T02:49:55.277Z,23.67
2023-05-24T02:52:23.398Z,24.73
2023-05-24T02:54:51.003Z,21.05
2023-05-24T02:57:18.382Z,29.95
2023-05-24T02:59:45.579Z,22.40
2023-05-24T03:02:13.842Z,18.75
2023-05-24T03:04:41.327Z,30.98
2023-05-24T03:07:08.529Z,21.25
2023-05-24T03:09:35.917Z,24.20
2023-05-24T03:12:03.259Z,23.45
2023-05-24T03:14:30.248Z,27.85
2023-05-24T03:16:57.453Z,23.10
2023-05-24T03:19:24.525Z,26.23
2023-05-24T03:21:52.545Z,23.85
2023-05-24T03:24:20.967Z,20.80
2023-05-24T03:26:48.288Z,20.92
2023-05-24T03:29:15.783Z,20.23
2023-05-24T03:31:43.268Z,22.02
2023-05-24T03:34:10.570Z,23.85
2023-05-24T03:36:38.042Z,23.38
2023-05-24T03:39:05.328Z,22.15
2023-05-24T03:41:32.439Z,23.20
2023-05-24T03:44:00.558Z,27.42
2023-05-24T03:46:27.911Z,19.15
2023-05-24T03:48:55.332Z,25.67
2023-05-24T03:51:29.642Z,25.38
2023-05-24T03:53:57.742Z,20.13
2023-05-24T03:56:26.800Z,25.85
2023-05-24T03:58:54.191Z,28.23
2023-05-24T04:01:32.836Z,21.45
2023-05-24T04:04:01.778Z,19.83
2023-05-24T04:06:29.716Z,22.77
2023-05-24T04:09:00.976Z,20.85
2023-05-24T04:11:28.708Z,22.90
2023-05-24T04:13:57.662Z,21.17
2023-05-24T04:16:26.471Z,32.00
2023-05-24T04:18:57.726Z,26.90
2023-05-24T04:21:25.037Z,28.55
2023-05-24T04:23:52.310Z,23.73
2023-05-24T04:26:21.516Z,26.02
2023-05-24T04:28:48.863Z,21.38
2023-05-24T04:31:16.724Z,27.13
2023-05-24T04:33:44.058Z,25.00
2023-05-24T04:36:11.959Z,24.63
2023-05-24T04:38:41.200Z,23.48
2023-05-24T04:41:08.425Z,28.33
2023-05-24T04:43:35.715Z,24.55
2023-05-24T04:46:03.017Z,24.45
2023-05-24T04:48:30.607Z,19.23
2023-05-24T04:50:58.635Z,22.58
2023-05-24T04:53:26.507Z,19.77
2023-05-24T04:55:53.867Z,27.67
2023-05-24T04:58:20.982Z,26.65
2023-05-24T05:00:48.378Z,21.98
2023-05-24T05:03:16.235Z,18.25
2023-05-24T05:05:44.588Z,21.20
2023-05-24T05:08:11.894Z,19.92
2023-05-24T05:10:39.096Z,23.77
2023-05-24T05:13:06.153Z,20.35
2023-05-24T05:15:33.512Z,27.00
2023-05-24T05:18:00.536Z,25.52
2023-05-24T05:20:27.860Z,30.52
2023-05-24T05:22:55.273Z,24.73
2023-05-24T05:25:22.695Z,23.60
2023-05-24T05:27:50.000Z,23.52
2023-05-24T05:30:17.553Z,21.55
2023-05-24T05:32:44.840Z,31.17
2023-05-24T05:35:12.037Z,16.92
2023-05-24T05:37:39.341Z,25.80
2023-05-24T05:40:07.054Z,19.60
2023-05-24T05:42:34.173Z,24.08
2023-05-24T05:45:03.313Z,28.17
2023-05-24T05:47:30.497Z,25.98
2023-05-24T05:49:57.619Z,27.30
2023-05-24T05:52:24.778Z,25.27
2023-05-24T05:54:52.253Z,24.42
2023-05-24T05:57:24.315Z,20.98
2023-05-24T05:59:51.882Z,22.08
2023-05-24T06:02:19.537Z,19.38
2023-05-24T06:04:47.602Z,24.63
2023-05-24T06:07:14.930Z,19.35
2023-05-24T06:09:42.137Z,19.50
2023-05-24T06:12:09.388Z,27.13
2023-05-24T06:14:38.636Z,28.70
2023-05-24T06:17:06.565Z,24.33
2023-05-24T06:19:34.104Z,25.10
2023-05-24T06:22:02.051Z,31.48
2023-05-24T06:24:30.527Z,30.17
2023-05-24T06:26:58.225Z,29.05
2023-05-24T06:29:25.533Z,23.92
2023-05-24T06:31:53.171Z,16.20
2023-05-24T06:34:23.661Z,26.40
2023-05-24T06:36:53.052Z,24.30
2023-05-24T06:39:21.133Z,24.65
2023-05-24T06:41:51.487Z,23.08
2023-05-24T06:44:18.996Z,19.60
2023-05-24T06:46:46.838Z,19.05
2023-05-24T06:49:14.040Z,25.80
2023-05-24T06:51:41.984Z,23.63
2023-05-24T06:54:09.212Z,22.48
2023-05-24T06:56:36.588Z,20.73
2023-05-24T06:59:03.818Z,26.35
2023-05-24T07:01:30.893Z,18.02
2023-05-24T09:33:18.238Z,22.17
2023-05-24T09:35:45.123Z,24.35
2023-05-24T09:38:19.617Z,15.73
2023-05-24T09:40:47.053Z,17.35
2023-05-24T09:43:14.091Z,16.48
2023-05-24T09:45:46.775Z,15.85
2023-05-24T09:48:15.476Z,16.42
2023-05-24T09:50:45.936Z,16.08
2023-05-24T09:53:13.076Z,21.27
2023-05-24T09:55:40.177Z,29.00
2023-05-24T09:58:09.147Z,17.10
2023-05-24T10:00:41.252Z,16.77
2023-05-24T10:03:11.315Z,18.77
2023-05-24T10:05:42.041Z,16.40
2023-05-24T10:08:10.027Z,15.73
2023-05-24T10:10:37.156Z,14.70
2023-05-24T10:13:05.593Z,20.92
2023-05-24T10:15:32.478Z,17.67
2023-05-24T10:18:11.331Z,14.40
2023-05-24T10:20:42.281Z,18.83
2023-05-24T10:23:10.676Z,13.25
2023-05-24T10:25:51.102Z,17.63
2023-05-24T10:28:19.893Z,15.63
2023-05-24T10:31:00.626Z,16.77
2023-05-24T10:33:28.411Z,18.33
2023-05-24T10:35:56.687Z,19.65
2023-05-24T10:38:25.084Z,20.05
2023-05-24T10:40:54.960Z,14.13
2023-05-24T10:43:22.154Z,19.15
2023-05-24T10:45:50.751Z,21.00
2023-05-24T10:48:32.626Z,16.60
2023-05-24T10:51:21.585Z,14.43
2023-05-24T10:53:50.061Z,19.75
2023-05-24T10:56:17.712Z,18.60
2023-05-24T10:58:46.373Z,16.58
2023-05-24T11:01:28.844Z,14.07
2023-05-24T11:04:15.271Z,16.67
2023-05-24T11:06:49.901Z,18.65
2023-05-24T11:09:22.692Z,16.48
2023-05-24T11:11:54.146Z,23.35
2023-05-24T11:14:24.755Z,16.00
2023-05-24T11:16:52.046Z,20.27
2023-05-24T11:19:32.649Z,13.95
2023-05-24T11:22:01.293Z,14.75
2023-05-24T11:24:29.139Z,15.65
2023-05-24T11:26:57.203Z,20.33
2023-05-24T11:29:25.204Z,19.13
2023-05-24T11:32:06.363Z,27.55
2023-05-24T11:34:34.323Z,20.92
2023-05-24T11:37:06.142Z,18.70
2023-05-24T11:39:35.496Z,17.38
2023-05-24T11:42:06.421Z,18.00
2023-05-24T11:44:34.261Z,13.75
2023-05-24T11:47:02.137Z,18.20
2023-05-24T11:49:29.529Z,14.23
2023-05-24T11:52:00.078Z,18.35
2023-05-24T11:54:32.669Z,20.65
2023-05-24T11:56:59.797Z,16.42
2023-05-24T11:59:28.701Z,17.80
2023-05-24T12:02:00.150Z,15.20
2023-05-24T12:04:31.198Z,14.82
2023-05-24T12:06:58.585Z,19.77
2023-05-24T12:09:25.831Z,14.65
2023-05-24T12:11:53.882Z,12.07
2023-05-24T12:14:26.123Z,15.18
2023-05-24T12:16:56.253Z,23.70
2023-05-24T12:19:37.247Z,24.10
2023-05-24T12:22:06.724Z,20.90
2023-05-24T12:24:34.327Z,14.55
2023-05-24T12:27:06.920Z,18.23
2023-05-24T12:29:40.013Z,17.92
2023-05-24T12:32:13.131Z,11.50
2023-05-24T12:34:44.819Z,21.33
2023-05-24T12:37:13.202Z,30.05
2023-05-24T12:39:43.133Z,15.48
2023-05-24T12:42:12.692Z,17.65
2023-05-24T12:44:40.054Z,13.75
2023-05-24T12:47:08.463Z,10.10
2023-05-24T12:49:36.412Z,17.95
2023-05-24T12:52:03.770Z,13.75
2023-05-24T12:54:30.942Z,16.08
2023-05-24T12:57:00.217Z,15.05
2023-05-24T12:59:28.774Z,19.00
2023-05-24T13:01:56.170Z,20.05
2023-05-24T13:04:26.412Z,17.67
2023-05-24T13:06:53.524Z,18.77
2023-05-24T13:09:23.141Z,18.50
2023-05-24T13:11:50.656Z,18.92
2023-05-24T13:14:18.399Z,42.30
2023-05-24T13:16:49.110Z,17.92
2023-05-24T13:19:17.229Z,19.65
2023-05-24T13:21:44.348Z,18.55
2023-05-24T13:24:15.732Z,17.10
2023-05-24T13:26:43.216Z,14.60
2023-05-24T13:31:43.728Z,15.65
2023-05-24T13:34:11.330Z,13.93
2023-05-24T13:36:38.669Z,13.13
2023-05-24T13:41:53.827Z,17.65
2023-05-24T13:44:21.513Z,11.85
2023-05-24T13:46:48.403Z,14.32
2023-05-24T13:47:41.321Z,12.55
2023-05-24T13:49:16.078Z,13.20
2023-05-24T13:51:43.089Z,16.17
2023-05-24T13:54:10.016Z,13.55
2023-05-24T13:56:37.396Z,10.98
2023-05-24T13:59:05.321Z,11.55
2023-05-24T14:01:39.288Z,12.65
2023-05-24T14:04:06.925Z,11.70
2023-05-24T14:06:34.830Z,14.63
2023-05-24T14:09:01.995Z,14.38
2023-05-24T14:11:31.540Z,12.65
2023-05-24T14:16:29.263Z,14.60
2023-05-24T14:18:56.730Z,10.80
2023-05-24T14:21:25.857Z,16.17
2023-05-24T14:23:52.841Z,11.90
2023-05-24T14:26:22.035Z,14.05
2023-05-24T14:28:49.410Z,10.70
2023-05-24T14:31:16.325Z,15.15
2023-05-24T14:33:43.810Z,18.40
2023-05-24T14:36:11.057Z,13.82
2023-05-24T14:38:38.001Z,14.07
2023-05-24T14:41:06.242Z,15.52
2023-05-24T14:43:33.293Z,14.05
2023-05-24T14:46:00.265Z,12.60
2023-05-24T14:48:27.272Z,14.43
2023-05-24T14:50:54.223Z,10.70
2023-05-24T14:53:21.108Z,14.30
2023-05-24T14:55:48.278Z,15.38
2023-05-24T14:58:15.194Z,11.05
2023-05-24T15:00:45.562Z,12.70
2023-05-24T15:03:14.697Z,11.18
2023-05-24T15:05:42.984Z,13.68
2023-05-24T15:08:11.482Z,13.82
2023-05-24T15:10:44.146Z,13.13
2023-05-24T15:13:11.411Z,11.40
2023-05-24T15:15:38.344Z,13.80
2023-05-24T15:18:05.940Z,14.07
2023-05-24T15:20:35.766Z,11.88
2023-05-24T15:23:04.010Z,13.65
2023-05-24T15:25:30.926Z,15.30
2023-05-24T15:27:58.086Z,14.00
2023-05-24T15:30:25.257Z,15.55
2023-05-24T15:32:52.215Z,13.10
2023-05-24T15:35:19.078Z,10.00
2023-05-24T15:37:46.765Z,15.13
2023-05-24T15:40:23.805Z,17.90
2023-05-24T15:42:52.968Z,16.45
2023-05-24T15:45:20.417Z,15.40
2023-05-24T15:47:47.361Z,16.23
2023-05-24T15:50:15.027Z,21.40
2023-05-24T15:52:42.289Z,17.15
2023-05-24T15:55:12.601Z,18.60
2023-05-24T15:57:42.492Z,21.00
2023-05-24T16:00:09.894Z,18.15
2023-05-24T16:02:36.830Z,15.50
2023-05-24T16:05:03.721Z,15.73
2023-05-24T16:07:31.894Z,17.58
2023-05-24T16:09:58.979Z,16.38
2023-05-24T16:12:26.242Z,17.35
2023-05-24T16:14:53.279Z,20.60
2023-05-24T16:17:21.184Z,15.68
2023-05-24T16:20:05.203Z,15.10
2023-05-24T16:22:46.293Z,16.42
2023-05-24T16:25:17.843Z,20.85
2023-05-24T16:27:44.790Z,17.92
2023-05-24T16:30:12.319Z,17.58
2023-05-24T16:32:40.092Z,16.17
2023-05-24T16:35:10.729Z,16.45
2023-05-24T16:37:37.970Z,13.52
2023-05-24T16:40:08.739Z,21.75
2023-05-24T16:42:35.579Z,15.25
2023-05-24T16:45:03.155Z,13.18
2023-05-24T16:47:30.284Z,16.83
2023-05-24T16:49:57.322Z,19.63
2023-05-24T16:52:24.175Z,16.45
2023-05-24T16:54:51.327Z,15.88
2023-05-24T16:57:18.169Z,17.85
2023-05-24T16:59:45.307Z,15.38
2023-05-24T17:02:12.268Z,18.25
2023-05-24T17:04:39.181Z,19.30
2023-05-24T17:07:06.379Z,19.17
2023-05-24T17:09:33.263Z,16.23
2023-05-24T17:12:00.151Z,15.85
2023-05-24T17:14:27.077Z,20.50
2023-05-24T17:16:53.986Z,17.73
2023-05-24T17:19:21.549Z,14.70
2023-05-24T17:21:48.408Z,12.82
2023-05-24T17:24:15.568Z,15.82
2023-05-24T17:26:42.640Z,22.95
2023-05-24T17:29:09.693Z,15.45
2023-05-24T17:31:37.841Z,18.65
2023-05-24T17:34:04.889Z,17.70
2023-05-24T17:36:33.724Z,18.10
2023-05-24T17:39:00.733Z,15.27
2023-05-24T17:41:28.137Z,19.80
2023-05-24T17:43:55.114Z,15.32
2023-05-24T17:46:21.993Z,19.90
2023-05-24T17:48:52.429Z,15.68
2023-05-24T17:51:22.416Z,19.20
2023-05-24T17:53:49.372Z,19.13
2023-05-24T17:56:16.548Z,16.73
2023-05-24T17:58:45.504Z,18.85
2023-05-24T18:01:16.348Z,13.40
2023-05-24T18:03:43.376Z,17.08
2023-05-24T18:06:10.571Z,14.85
2023-05-24T18:08:40.980Z,16.08
2023-05-24T18:11:08.718Z,17.17
2023-05-24T18:13:37.910Z,22.77
2023-05-24T18:16:05.696Z,14.50
2023-05-24T18:18:33.466Z,20.35
2023-05-24T18:21:00.734Z,17.27
2023-05-24T18:23:27.764Z,17.02
2023-05-24T18:26:01.075Z,14.57
2023-05-24T18:28:30.069Z,13.43
2023-05-24T18:30:57.152Z,13.00
2023-05-24T18:33:24.466Z,14.40
2023-05-24T18:35:51.473Z,15.45
2023-05-24T18:38:18.472Z,14.25
2023-05-24T18:40:45.805Z,14.07
2023-05-24T18:43:12.724Z,11.40
2023-05-24T18:45:39.720Z,19.02
2023-05-24T18:48:06.868Z,16.98
2023-05-24T18:50:33.868Z,17.92
2023-05-24T18:53:02.298Z,13.65
2023-05-24T18:55:29.395Z,15.85
2023-05-24T18:57:56.391Z,16.73
2023-05-24T19:00:24.574Z,11.18
2023-05-24T19:02:51.781Z,11.40
2023-05-24T19:05:20.117Z,9.75
2023-05-24T19:07:47.327Z,13.93
2023-05-24T19:10:14.386Z,9.70
2023-05-24T19:12:41.451Z,9.93
2023-05-24T19:15:08.665Z,13.88
2023-05-24T19:17:35.780Z,10.07
2023-05-24T19:20:03.286Z,11.55
2023-05-24T19:22:30.352Z,10.98
2023-05-24T19:24:57.350Z,12.02
2023-05-24T19:27:24.746Z,10.63
2023-05-24T19:29:52.007Z,14.15
2023-05-24T19:32:20.341Z,9.00
2023-05-24T19:34:47.545Z,10.15
2023-05-24T19:37:15.715Z,13.25
2023-05-24T19:39:42.729Z,9.45
2023-05-24T19:42:11.110Z,13.07
2023-05-24T19:44:38.226Z,10.43
2023-05-24T19:47:05.407Z,7.22
2023-05-24T19:49:32.290Z,10.98
2023-05-24T19:51:59.297Z,11.00
2023-05-24T19:54:26.358Z,9.05
2023-05-24T19:56:55.116Z,14.70
2023-05-24T19:59:22.107Z,11.02
2023-05-24T20:01:49.230Z,11.38
2023-05-24T20:04:16.241Z,9.43
2023-05-24T20:06:43.136Z,11.15
2023-05-24T20:09:10.165Z,9.95
2023-05-24T20:11:37.012Z,10.15
2023-05-24T20:14:03.907Z,9.48
2023-05-24T20:16:31.498Z,7.13
2023-05-24T20:18:58.447Z,12.10
2023-05-24T20:21:25.481Z,8.82
2023-05-24T20:23:57.817Z,10.65
2023-05-24T20:26:26.436Z,11.30
2023-05-24T20:28:53.435Z,8.18
2023-05-24T20:31:20.499Z,9.43
2023-05-24T20:33:48.947Z,9.45
2023-05-24T20:36:16.051Z,8.68
2023-05-24T20:38:43.004Z,9.15
2023-05-24T20:41:09.979Z,10.73
2023-05-24T20:43:36.816Z,9.27
2023-05-24T20:46:03.742Z,10.30
2023-05-24T20:48:32.738Z,14.40
2023-05-24T20:50:59.841Z,12.38
2023-05-24T20:53:26.735Z,9.50
2023-05-24T20:55:53.672Z,8.45
2023-05-24T20:58:20.709Z,10.25
2023-05-24T21:00:47.648Z,9.05
2023-05-24T21:03:14.849Z,9.38
2023-05-24T21:05:41.990Z,8.70
2023-05-24T21:08:09.172Z,7.35
2023-05-24T21:10:38.009Z,8.57
2023-05-24T21:13:05.925Z,8.77
2023-05-24T21:15:32.961Z,9.75
2023-05-24T21:18:00.011Z,11.10
2023-05-24T21:20:26.953Z,9.68
2023-05-24T21:22:53.951Z,8.05
2023-05-24T21:25:21.027Z,11.85
2023-05-24T21:27:47.929Z,9.60
2023-05-24T21:30:15.108Z,10.93
2023-05-24T21:32:42.019Z,9.75
2023-05-24T21:35:09.098Z,9.10
2023-05-24T21:37:35.995Z,9.80
2023-05-24T21:40:03.120Z,11.82
2023-05-24T21:42:30.015Z,10.05
2023-05-24T21:44:56.904Z,11.40
2023-05-24T21:47:23.806Z,7.78
2023-05-24T21:49:51.305Z,13.82
2023-05-24T21:52:18.139Z,12.90
2023-05-24T21:54:45.215Z,9.20
2023-05-24T21:57:12.510Z,8.13
2023-05-24T21:59:39.389Z,10.77
2023-05-24T22:02:06.586Z,11.05
2023-05-24T22:04:33.559Z,14.10
2023-05-24T22:07:00.506Z,12.82
2023-05-24T22:09:27.414Z,12.55
2023-05-24T22:11:54.338Z,10.95
2023-05-24T22:14:21.424Z,9.35
2023-05-24T22:16:48.485Z,11.27
2023-05-24T22:19:18.364Z,9.98
2023-05-24T22:21:50.383Z,10.00
2023-05-24T22:24:17.358Z,9.23
2023-05-24T22:26:46.776Z,15.60
2023-05-24T22:29:14.050Z,9.50
2023-05-24T22:31:41.568Z,9.48
2023-05-24T22:34:10.659Z,12.27
2023-05-24T22:36:38.928Z,11.88
2023-05-24T22:39:06.358Z,13.50
2023-05-24T22:41:33.347Z,12.45
2023-05-24T22:44:00.470Z,15.75
2023-05-24T22:46:27.531Z,14.45
2023-05-24T22:48:57.746Z,13.77
2023-05-24T22:51:25.338Z,15.35
2023-05-24T22:53:52.950Z,15.80
2023-05-24T22:56:20.153Z,15.55
2023-05-24T22:58:47.029Z,14.98
2023-05-24T23:01:15.376Z,10.10
2023-05-24T23:03:42.406Z,12.60
2023-05-24T23:06:11.972Z,14.68
2023-05-24T23:08:39.436Z,13.52
2023-05-24T23:11:13.297Z,14.38
2023-05-24T23:13:42.361Z,9.10
2023-05-24T23:16:09.492Z,14.02
2023-05-24T23:18:37.802Z,12.48
2023-05-24T23:21:04.934Z,14.85
2023-05-24T23:23:31.807Z,12.63
2023-05-24T23:25:58.749Z,18.60
2023-05-24T23:28:25.616Z,13.10
2023-05-24T23:30:53.710Z,13.52
2023-05-24T23:33:21.004Z,16.73
2023-05-24T23:35:48.075Z,16.85
2023-05-24T23:38:15.833Z,13.15
2023-05-24T23:40:43.190Z,16.05
2023-05-24T23:43:10.203Z,14.80
2023-05-24T23:45:37.133Z,14.43
2023-05-24T23:48:04.196Z,18.50
2023-05-24T23:50:35.185Z,16.80
2023-05-24T23:53:07.716Z,11.88
2023-05-24T23:55:34.752Z,10.52
2023-05-24T23:58:01.623Z,15.23
